sensor_id;sensor_type;location;lat;lon;timestamp;P1;durP1;ratioP1;P2;durP2;ratioP2
32786;SDS011;19139;49.372;8.580;2023-12-22T00:01:24;1.00;;;0.50;;
32786;SDS011;19139;49.372;8.580;2023-12-22T00:03:50;1.23;;;0.30;;
32786;SDS011;19139;49.372;8.580;2023-12-22T00:06:17;0.73;;;0.40;;
32786;SDS011;19139;49.372;8.580;2023-12-22T00:08:44;1.60;;;0.60;;
32786;SDS011;19139;49.372;8.580;2023-12-22T00:11:10;1.47;;;0.83;;
32786;SDS011;19139;49.372;8.580;2023-12-22T00:13:37;0.77;;;0.40;;
32786;SDS011;19139;49.372;8.580;2023-12-22T00:16:04;2.27;;;0.53;;
32786;SDS011;19139;49.372;8.580;2023-12-22T00:18:31;2.30;;;0.40;;
32786;SDS011;19139;49.372;8.580;2023-12-22T00:20:58;0.87;;;0.37;;
32786;SDS011;19139;49.372;8.580;2023-12-22T00:23:25;0.80;;;0.40;;
32786;SDS011;19139;49.372;8.580;2023-12-22T00:25:51;2.50;;;0.83;;
32786;SDS011;19139;49.372;8.580;2023-12-22T00:28:18;0.83;;;0.40;;
32786;SDS011;19139;49.372;8.580;2023-12-22T00:30:45;1.40;;;0.53;;
32786;SDS011;19139;49.372;8.580;2023-12-22T00:33:11;1.27;;;0.47;;
32786;SDS011;19139;49.372;8.580;2023-12-22T00:35:38;0.47;;;0.30;;
32786;SDS011;19139;49.372;8.580;2023-12-22T00:38:05;0.83;;;0.40;;
32786;SDS011;19139;49.372;8.580;2023-12-22T00:40:31;1.63;;;0.60;;
32786;SDS011;19139;49.372;8.580;2023-12-22T00:42:58;0.83;;;0.33;;
32786;SDS011;19139;49.372;8.580;2023-12-22T00:45:25;1.60;;;0.43;;
32786;SDS011;19139;49.372;8.580;2023-12-22T00:47:52;1.63;;;0.60;;
32786;SDS011;19139;49.372;8.580;2023-12-22T00:50:19;0.90;;;0.50;;
32786;SDS011;19139;49.372;8.580;2023-12-22T00:52:46;1.37;;;0.30;;
32786;SDS011;19139;49.372;8.580;2023-12-22T00:55:12;1.50;;;0.40;;
32786;SDS011;19139;49.372;8.580;2023-12-22T00:57:39;0.87;;;0.53;;
32786;SDS011;19139;49.372;8.580;2023-12-22T01:00:06;0.70;;;0.33;;
32786;SDS011;19139;49.372;8.580;2023-12-22T01:02:37;1.13;;;0.53;;
32786;SDS011;19139;49.372;8.580;2023-12-22T01:05:04;0.93;;;0.60;;
32786;SDS011;19139;49.372;8.580;2023-12-22T01:07:32;0.87;;;0.40;;
32786;SDS011;19139;49.372;8.580;2023-12-22T01:09:58;1.20;;;0.43;;
32786;SDS011;19139;49.372;8.580;2023-12-22T01:12:27;0.80;;;0.50;;
32786;SDS011;19139;49.372;8.580;2023-12-22T01:14:58;0.63;;;0.20;;
32786;SDS011;19139;49.372;8.580;2023-12-22T01:17:25;0.57;;;0.40;;
32786;SDS011;19139;49.372;8.580;2023-12-22T01:19:52;0.50;;;0.30;;
32786;SDS011;19139;49.372;8.580;2023-12-22T01:22:19;1.13;;;0.40;;
32786;SDS011;19139;49.372;8.580;2023-12-22T01:24:45;2.00;;;0.50;;
32786;SDS011;19139;49.372;8.580;2023-12-22T01:27:12;1.43;;;0.50;;
32786;SDS011;19139;49.372;8.580;2023-12-22T01:29:39;0.80;;;0.50;;
32786;SDS011;19139;49.372;8.580;2023-12-22T01:32:06;1.87;;;1.20;;
32786;SDS011;19139;49.372;8.580;2023-12-22T01:34:32;1.30;;;0.40;;
32786;SDS011;19139;49.372;8.580;2023-12-22T01:36:59;1.10;;;0.20;;
32786;SDS011;19139;49.372;8.580;2023-12-22T01:39:26;1.47;;;0.40;;
32786;SDS011;19139;49.372;8.580;2023-12-22T01:41:52;0.40;;;0.40;;
32786;SDS011;19139;49.372;8.580;2023-12-22T01:44:19;0.40;;;0.33;;
32786;SDS011;19139;49.372;8.580;2023-12-22T01:46:46;0.43;;;0.30;;
32786;SDS011;19139;49.372;8.580;2023-12-22T01:49:13;0.50;;;0.30;;
32786;SDS011;19139;49.372;8.580;2023-12-22T01:51:41;1.20;;;0.40;;
32786;SDS011;19139;49.372;8.580;2023-12-22T01:54:09;0.80;;;0.40;;
32786;SDS011;19139;49.372;8.580;2023-12-22T01:56:37;0.50;;;0.30;;
32786;SDS011;19139;49.372;8.580;2023-12-22T01:59:03;1.07;;;0.40;;
32786;SDS011;19139;49.372;8.580;2023-12-22T02:01:30;1.57;;;0.40;;
32786;SDS011;19139;49.372;8.580;2023-12-22T02:03:58;1.07;;;0.40;;
32786;SDS011;19139;49.372;8.580;2023-12-22T02:06:26;0.50;;;0.30;;
32786;SDS011;19139;49.372;8.580;2023-12-22T02:08:56;1.17;;;0.50;;
32786;SDS011;19139;49.372;8.580;2023-12-22T02:11:24;0.77;;;0.30;;
32786;SDS011;19139;49.372;8.580;2023-12-22T02:13:51;0.60;;;0.30;;
32786;SDS011;19139;49.372;8.580;2023-12-22T02:16:18;1.10;;;0.40;;
32786;SDS011;19139;49.372;8.580;2023-12-22T02:18:55;1.00;;;0.40;;
32786;SDS011;19139;49.372;8.580;2023-12-22T02:21:22;1.67;;;0.50;;
32786;SDS011;19139;49.372;8.580;2023-12-22T02:23:49;0.73;;;0.40;;
32786;SDS011;19139;49.372;8.580;2023-12-22T02:26:25;0.70;;;0.40;;
32786;SDS011;19139;49.372;8.580;2023-12-22T02:28:58;0.40;;;0.30;;
32786;SDS011;19139;49.372;8.580;2023-12-22T02:31:37;1.60;;;0.80;;
32786;SDS011;19139;49.372;8.580;2023-12-22T02:34:12;0.40;;;0.30;;
32786;SDS011;19139;49.372;8.580;2023-12-22T02:36:44;1.30;;;0.53;;
32786;SDS011;19139;49.372;8.580;2023-12-22T02:39:13;1.57;;;0.97;;
32786;SDS011;19139;49.372;8.580;2023-12-22T02:41:40;0.90;;;0.30;;
32786;SDS011;19139;49.372;8.580;2023-12-22T02:44:07;0.60;;;0.30;;
32786;SDS011;19139;49.372;8.580;2023-12-22T02:46:35;0.43;;;0.30;;
32786;SDS011;19139;49.372;8.580;2023-12-22T02:49:01;1.70;;;0.50;;
32786;SDS011;19139;49.372;8.580;2023-12-22T02:51:28;0.97;;;0.33;;
32786;SDS011;19139;49.372;8.580;2023-12-22T02:53:55;0.87;;;0.50;;
32786;SDS011;19139;49.372;8.580;2023-12-22T02:56:21;0.60;;;0.23;;
32786;SDS011;19139;49.372;8.580;2023-12-22T02:58:48;0.70;;;0.40;;
32786;SDS011;19139;49.372;8.580;2023-12-22T03:01:15;1.03;;;0.40;;
32786;SDS011;19139;49.372;8.580;2023-12-22T03:03:41;0.40;;;0.30;;
32786;SDS011;19139;49.372;8.580;2023-12-22T03:06:08;0.77;;;0.43;;
32786;SDS011;19139;49.372;8.580;2023-12-22T03:08:35;0.60;;;0.50;;
32786;SDS011;19139;49.372;8.580;2023-12-22T03:11:02;0.73;;;0.40;;
32786;SDS011;19139;49.372;8.580;2023-12-22T03:13:28;0.80;;;0.50;;
32786;SDS011;19139;49.372;8.580;2023-12-22T03:15:55;0.40;;;0.30;;
32786;SDS011;19139;49.372;8.580;2023-12-22T03:18:22;0.43;;;0.30;;
32786;SDS011;19139;49.372;8.580;2023-12-22T03:20:48;0.80;;;0.30;;
32786;SDS011;19139;49.372;8.580;2023-12-22T03:23:15;0.80;;;0.50;;
32786;SDS011;19139;49.372;8.580;2023-12-22T03:25:41;0.53;;;0.23;;
32786;SDS011;19139;49.372;8.580;2023-12-22T03:28:08;1.03;;;0.40;;
32786;SDS011;19139;49.372;8.580;2023-12-22T03:30:35;0.40;;;0.30;;
32786;SDS011;19139;49.372;8.580;2023-12-22T03:33:04;0.57;;;0.33;;
32786;SDS011;19139;49.372;8.580;2023-12-22T03:35:31;1.00;;;0.40;;
32786;SDS011;19139;49.372;8.580;2023-12-22T03:37:57;0.50;;;0.30;;
32786;SDS011;19139;49.372;8.580;2023-12-22T03:40:24;1.07;;;0.40;;
32786;SDS011;19139;49.372;8.580;2023-12-22T03:42:51;0.40;;;0.30;;
32786;SDS011;19139;49.372;8.580;2023-12-22T03:45:18;0.60;;;0.30;;
32786;SDS011;19139;49.372;8.580;2023-12-22T03:47:44;0.40;;;0.20;;
32786;SDS011;19139;49.372;8.580;2023-12-22T03:50:11;0.30;;;0.20;;
32786;SDS011;19139;49.372;8.580;2023-12-22T03:52:38;1.13;;;0.30;;
32786;SDS011;19139;49.372;8.580;2023-12-22T03:55:04;0.47;;;0.30;;
32786;SDS011;19139;49.372;8.580;2023-12-22T03:57:31;0.53;;;0.33;;
32786;SDS011;19139;49.372;8.580;2023-12-22T03:59:58;0.40;;;0.27;;
32786;SDS011;19139;49.372;8.580;2023-12-22T04:02:25;0.37;;;0.30;;
32786;SDS011;19139;49.372;8.580;2023-12-22T04:04:52;0.87;;;0.50;;
32786;SDS011;19139;49.372;8.580;2023-12-22T04:07:18;1.17;;;0.50;;
32786;SDS011;19139;49.372;8.580;2023-12-22T04:09:45;0.93;;;0.60;;
32786;SDS011;19139;49.372;8.580;2023-12-22T04:12:12;0.97;;;0.33;;
32786;SDS011;19139;49.372;8.580;2023-12-22T04:14:38;0.53;;;0.40;;
32786;SDS011;19139;49.372;8.580;2023-12-22T04:17:05;0.83;;;0.40;;
32786;SDS011;19139;49.372;8.580;2023-12-22T04:19:32;0.73;;;0.30;;
32786;SDS011;19139;49.372;8.580;2023-12-22T04:21:58;0.53;;;0.40;;
32786;SDS011;19139;49.372;8.580;2023-12-22T04:24:25;0.73;;;0.30;;
32786;SDS011;19139;49.372;8.580;2023-12-22T04:26:52;0.67;;;0.20;;
32786;SDS011;19139;49.372;8.580;2023-12-22T04:29:18;0.30;;;0.30;;
32786;SDS011;19139;49.372;8.580;2023-12-22T04:31:45;0.63;;;0.30;;
32786;SDS011;19139;49.372;8.580;2023-12-22T04:34:15;0.20;;;0.20;;
32786;SDS011;19139;49.372;8.580;2023-12-22T04:36:42;1.47;;;0.40;;
32786;SDS011;19139;49.372;8.580;2023-12-22T04:39:09;0.73;;;0.27;;
32786;SDS011;19139;49.372;8.580;2023-12-22T04:41:35;0.80;;;0.40;;
32786;SDS011;19139;49.372;8.580;2023-12-22T04:44:02;1.70;;;0.40;;
32786;SDS011;19139;49.372;8.580;2023-12-22T04:46:29;0.60;;;0.30;;
32786;SDS011;19139;49.372;8.580;2023-12-22T04:48:56;0.67;;;0.27;;
32786;SDS011;19139;49.372;8.580;2023-12-22T04:51:23;0.47;;;0.30;;
32786;SDS011;19139;49.372;8.580;2023-12-22T04:53:50;0.80;;;0.40;;
32786;SDS011;19139;49.372;8.580;2023-12-22T04:56:16;1.33;;;0.50;;
32786;SDS011;19139;49.372;8.580;2023-12-22T04:58:43;0.37;;;0.20;;
32786;SDS011;19139;49.372;8.580;2023-12-22T05:01:10;0.60;;;0.30;;
32786;SDS011;19139;49.372;8.580;2023-12-22T05:03:37;1.90;;;0.30;;
32786;SDS011;19139;49.372;8.580;2023-12-22T05:06:03;0.60;;;0.30;;
32786;SDS011;19139;49.372;8.580;2023-12-22T05:08:30;0.60;;;0.20;;
32786;SDS011;19139;49.372;8.580;2023-12-22T05:10:57;0.57;;;0.40;;
32786;SDS011;19139;49.372;8.580;2023-12-22T05:13:23;0.50;;;0.30;;
32786;SDS011;19139;49.372;8.580;2023-12-22T05:15:50;0.90;;;0.40;;
32786;SDS011;19139;49.372;8.580;2023-12-22T05:18:17;0.50;;;0.40;;
32786;SDS011;19139;49.372;8.580;2023-12-22T05:20:44;0.87;;;0.40;;
32786;SDS011;19139;49.372;8.580;2023-12-22T05:23:11;1.27;;;0.30;;
32786;SDS011;19139;49.372;8.580;2023-12-22T05:25:38;1.90;;;0.40;;
32786;SDS011;19139;49.372;8.580;2023-12-22T05:28:05;0.80;;;0.20;;
32786;SDS011;19139;49.372;8.580;2023-12-22T05:30:31;0.30;;;0.30;;
32786;SDS011;19139;49.372;8.580;2023-12-22T05:32:58;0.70;;;0.40;;
32786;SDS011;19139;49.372;8.580;2023-12-22T05:35:25;1.07;;;0.50;;
32786;SDS011;19139;49.372;8.580;2023-12-22T05:37:51;1.70;;;0.20;;
32786;SDS011;19139;49.372;8.580;2023-12-22T05:40:18;1.07;;;0.20;;
32786;SDS011;19139;49.372;8.580;2023-12-22T05:42:45;1.50;;;0.40;;
32786;SDS011;19139;49.372;8.580;2023-12-22T05:45:12;0.77;;;0.40;;
32786;SDS011;19139;49.372;8.580;2023-12-22T05:47:40;1.53;;;0.50;;
32786;SDS011;19139;49.372;8.580;2023-12-22T05:50:07;0.73;;;0.37;;
32786;SDS011;19139;49.372;8.580;2023-12-22T05:52:34;0.53;;;0.20;;
32786;SDS011;19139;49.372;8.580;2023-12-22T05:55:01;0.57;;;0.30;;
32786;SDS011;19139;49.372;8.580;2023-12-22T05:57:28;0.30;;;0.20;;
32786;SDS011;19139;49.372;8.580;2023-12-22T05:59:54;0.80;;;0.50;;
32786;SDS011;19139;49.372;8.580;2023-12-22T06:02:21;0.57;;;0.20;;
32786;SDS011;19139;49.372;8.580;2023-12-22T06:04:48;0.60;;;0.30;;
32786;SDS011;19139;49.372;8.580;2023-12-22T06:07:15;1.17;;;0.23;;
32786;SDS011;19139;49.372;8.580;2023-12-22T06:09:41;0.73;;;0.33;;
32786;SDS011;19139;49.372;8.580;2023-12-22T06:12:08;0.40;;;0.20;;
32786;SDS011;19139;49.372;8.580;2023-12-22T06:14:39;0.40;;;0.20;;
32786;SDS011;19139;49.372;8.580;2023-12-22T06:17:05;0.40;;;0.27;;
32786;SDS011;19139;49.372;8.580;2023-12-22T06:19:32;0.60;;;0.40;;
32786;SDS011;19139;49.372;8.580;2023-12-22T06:21:59;0.30;;;0.27;;
32786;SDS011;19139;49.372;8.580;2023-12-22T06:24:26;0.67;;;0.30;;
32786;SDS011;19139;49.372;8.580;2023-12-22T06:26:53;0.77;;;0.37;;
32786;SDS011;19139;49.372;8.580;2023-12-22T06:29:20;0.50;;;0.30;;
32786;SDS011;19139;49.372;8.580;2023-12-22T06:31:46;0.77;;;0.37;;
32786;SDS011;19139;49.372;8.580;2023-12-22T06:34:17;1.03;;;0.30;;
32786;SDS011;19139;49.372;8.580;2023-12-22T06:36:44;1.27;;;0.33;;
32786;SDS011;19139;49.372;8.580;2023-12-22T06:39:10;0.67;;;0.30;;
32786;SDS011;19139;49.372;8.580;2023-12-22T06:41:37;0.57;;;0.20;;
32786;SDS011;19139;49.372;8.580;2023-12-22T06:44:04;0.47;;;0.20;;
32786;SDS011;19139;49.372;8.580;2023-12-22T06:46:31;0.70;;;0.30;;
32786;SDS011;19139;49.372;8.580;2023-12-22T06:48:58;0.57;;;0.23;;
32786;SDS011;19139;49.372;8.580;2023-12-22T06:51:30;0.50;;;0.40;;
32786;SDS011;19139;49.372;8.580;2023-12-22T06:53:57;0.53;;;0.33;;
32786;SDS011;19139;49.372;8.580;2023-12-22T06:56:28;0.77;;;0.30;;
32786;SDS011;19139;49.372;8.580;2023-12-22T06:58:56;0.60;;;0.30;;
32786;SDS011;19139;49.372;8.580;2023-12-22T07:01:27;2.37;;;0.47;;
32786;SDS011;19139;49.372;8.580;2023-12-22T07:03:55;0.50;;;0.30;;
32786;SDS011;19139;49.372;8.580;2023-12-22T07:06:24;0.43;;;0.30;;
32786;SDS011;19139;49.372;8.580;2023-12-22T07:11:40;0.57;;;0.30;;
32786;SDS011;19139;49.372;8.580;2023-12-22T07:14:09;0.93;;;0.20;;
32786;SDS011;19139;49.372;8.580;2023-12-22T07:16:37;0.47;;;0.30;;
32786;SDS011;19139;49.372;8.580;2023-12-22T07:19:04;0.67;;;0.30;;
32786;SDS011;19139;49.372;8.580;2023-12-22T07:21:31;0.40;;;0.20;;
32786;SDS011;19139;49.372;8.580;2023-12-22T07:23:58;0.77;;;0.20;;
32786;SDS011;19139;49.372;8.580;2023-12-22T07:26:25;2.33;;;0.50;;
32786;SDS011;19139;49.372;8.580;2023-12-22T07:28:53;0.70;;;0.30;;
32786;SDS011;19139;49.372;8.580;2023-12-22T07:31:20;0.83;;;0.50;;
32786;SDS011;19139;49.372;8.580;2023-12-22T07:33:47;0.30;;;0.20;;
32786;SDS011;19139;49.372;8.580;2023-12-22T07:36:14;0.50;;;0.30;;
32786;SDS011;19139;49.372;8.580;2023-12-22T07:38:41;0.40;;;0.30;;
32786;SDS011;19139;49.372;8.580;2023-12-22T07:41:08;1.30;;;0.50;;
32786;SDS011;19139;49.372;8.580;2023-12-22T07:43:37;1.17;;;0.30;;
32786;SDS011;19139;49.372;8.580;2023-12-22T07:46:04;0.40;;;0.33;;
32786;SDS011;19139;49.372;8.580;2023-12-22T07:48:31;0.40;;;0.20;;
32786;SDS011;19139;49.372;8.580;2023-12-22T07:50:58;0.43;;;0.20;;
32786;SDS011;19139;49.372;8.580;2023-12-22T07:53:24;0.73;;;0.40;;
32786;SDS011;19139;49.372;8.580;2023-12-22T07:55:51;0.40;;;0.40;;
32786;SDS011;19139;49.372;8.580;2023-12-22T07:58:18;0.40;;;0.30;;
32786;SDS011;19139;49.372;8.580;2023-12-22T08:00:45;0.90;;;0.40;;
32786;SDS011;19139;49.372;8.580;2023-12-22T08:03:12;0.80;;;0.30;;
32786;SDS011;19139;49.372;8.580;2023-12-22T08:05:39;0.43;;;0.20;;
32786;SDS011;19139;49.372;8.580;2023-12-22T08:08:06;0.57;;;0.30;;
32786;SDS011;19139;49.372;8.580;2023-12-22T08:10:33;0.67;;;0.30;;
32786;SDS011;19139;49.372;8.580;2023-12-22T08:12:59;0.60;;;0.33;;
32786;SDS011;19139;49.372;8.580;2023-12-22T08:15:26;0.80;;;0.50;;
32786;SDS011;19139;49.372;8.580;2023-12-22T08:18:02;0.87;;;0.40;;
32786;SDS011;19139;49.372;8.580;2023-12-22T08:20:29;0.63;;;0.30;;
32786;SDS011;19139;49.372;8.580;2023-12-22T08:23:02;0.47;;;0.20;;
32786;SDS011;19139;49.372;8.580;2023-12-22T08:25:35;0.63;;;0.30;;
32786;SDS011;19139;49.372;8.580;2023-12-22T08:28:02;0.40;;;0.30;;
32786;SDS011;19139;49.372;8.580;2023-12-22T08:30:29;0.70;;;0.40;;
32786;SDS011;19139;49.372;8.580;2023-12-22T08:32:56;0.83;;;0.37;;
32786;SDS011;19139;49.372;8.580;2023-12-22T08:35:23;1.40;;;0.23;;
32786;SDS011;19139;49.372;8.580;2023-12-22T08:37:49;0.80;;;0.40;;
32786;SDS011;19139;49.372;8.580;2023-12-22T08:40:16;0.40;;;0.20;;
32786;SDS011;19139;49.372;8.580;2023-12-22T08:42:43;0.37;;;0.30;;
32786;SDS011;19139;49.372;8.580;2023-12-22T08:45:10;0.70;;;0.40;;
32786;SDS011;19139;49.372;8.580;2023-12-22T08:47:37;0.50;;;0.20;;
32786;SDS011;19139;49.372;8.580;2023-12-22T08:50:03;2.17;;;0.47;;
32786;SDS011;19139;49.372;8.580;2023-12-22T08:52:33;0.77;;;0.30;;
32786;SDS011;19139;49.372;8.580;2023-12-22T08:55:02;0.77;;;0.50;;
32786;SDS011;19139;49.372;8.580;2023-12-22T08:57:29;0.60;;;0.20;;
32786;SDS011;19139;49.372;8.580;2023-12-22T08:59:55;0.57;;;0.30;;
32786;SDS011;19139;49.372;8.580;2023-12-22T09:02:22;1.00;;;0.40;;
32786;SDS011;19139;49.372;8.580;2023-12-22T09:04:49;0.60;;;0.30;;
32786;SDS011;19139;49.372;8.580;2023-12-22T09:07:17;0.40;;;0.20;;
32786;SDS011;19139;49.372;8.580;2023-12-22T09:09:43;0.57;;;0.20;;
32786;SDS011;19139;49.372;8.580;2023-12-22T09:12:10;2.87;;;0.87;;
32786;SDS011;19139;49.372;8.580;2023-12-22T09:14:37;1.10;;;0.40;;
32786;SDS011;19139;49.372;8.580;2023-12-22T09:17:03;0.87;;;0.40;;
32786;SDS011;19139;49.372;8.580;2023-12-22T09:19:33;0.40;;;0.30;;
32786;SDS011;19139;49.372;8.580;2023-12-22T09:22:00;0.63;;;0.40;;
32786;SDS011;19139;49.372;8.580;2023-12-22T09:24:27;0.47;;;0.20;;
32786;SDS011;19139;49.372;8.580;2023-12-22T09:26:53;0.63;;;0.20;;
32786;SDS011;19139;49.372;8.580;2023-12-22T09:29:20;1.83;;;0.43;;
32786;SDS011;19139;49.372;8.580;2023-12-22T09:31:48;1.23;;;0.30;;
32786;SDS011;19139;49.372;8.580;2023-12-22T09:34:14;0.80;;;0.50;;
32786;SDS011;19139;49.372;8.580;2023-12-22T09:36:41;0.70;;;0.30;;
32786;SDS011;19139;49.372;8.580;2023-12-22T09:39:08;1.70;;;0.50;;
32786;SDS011;19139;49.372;8.580;2023-12-22T09:41:35;0.63;;;0.30;;
32786;SDS011;19139;49.372;8.580;2023-12-22T09:44:02;1.53;;;0.33;;
32786;SDS011;19139;49.372;8.580;2023-12-22T09:46:31;0.60;;;0.30;;
32786;SDS011;19139;49.372;8.580;2023-12-22T09:49:00;1.30;;;0.20;;
32786;SDS011;19139;49.372;8.580;2023-12-22T09:51:27;0.90;;;0.50;;
32786;SDS011;19139;49.372;8.580;2023-12-22T09:53:56;1.03;;;0.50;;
32786;SDS011;19139;49.372;8.580;2023-12-22T09:56:27;0.40;;;0.23;;
32786;SDS011;19139;49.372;8.580;2023-12-22T09:58:55;0.90;;;0.40;;
32786;SDS011;19139;49.372;8.580;2023-12-22T10:01:22;0.73;;;0.30;;
32786;SDS011;19139;49.372;8.580;2023-12-22T10:03:50;0.73;;;0.33;;
32786;SDS011;19139;49.372;8.580;2023-12-22T10:06:17;1.60;;;0.50;;
32786;SDS011;19139;49.372;8.580;2023-12-22T10:08:44;0.50;;;0.40;;
32786;SDS011;19139;49.372;8.580;2023-12-22T10:11:13;0.87;;;0.57;;
32786;SDS011;19139;49.372;8.580;2023-12-22T10:13:41;2.00;;;0.30;;
32786;SDS011;19139;49.372;8.580;2023-12-22T10:16:09;0.97;;;0.50;;
32786;SDS011;19139;49.372;8.580;2023-12-22T10:18:36;0.60;;;0.27;;
32786;SDS011;19139;49.372;8.580;2023-12-22T10:21:03;0.80;;;0.40;;
32786;SDS011;19139;49.372;8.580;2023-12-22T10:23:29;1.03;;;0.33;;
32786;SDS011;19139;49.372;8.580;2023-12-22T10:25:57;0.60;;;0.30;;
32786;SDS011;19139;49.372;8.580;2023-12-22T10:28:27;1.13;;;0.33;;
32786;SDS011;19139;49.372;8.580;2023-12-22T10:30:54;0.77;;;0.40;;
32786;SDS011;19139;49.372;8.580;2023-12-22T10:33:25;0.70;;;0.40;;
32786;SDS011;19139;49.372;8.580;2023-12-22T10:35:53;0.93;;;0.37;;
32786;SDS011;19139;49.372;8.580;2023-12-22T10:38:20;2.47;;;0.20;;
32786;SDS011;19139;49.372;8.580;2023-12-22T10:40:46;3.30;;;0.43;;
32786;SDS011;19139;49.372;8.580;2023-12-22T10:43:14;2.20;;;0.40;;
32786;SDS011;19139;49.372;8.580;2023-12-22T10:45:41;0.87;;;0.37;;
32786;SDS011;19139;49.372;8.580;2023-12-22T10:48:08;1.20;;;0.50;;
32786;SDS011;19139;49.372;8.580;2023-12-22T10:50:36;1.73;;;0.30;;
32786;SDS011;19139;49.372;8.580;2023-12-22T10:53:05;1.70;;;0.67;;
32786;SDS011;19139;49.372;8.580;2023-12-22T10:55:34;5.37;;;1.77;;
32786;SDS011;19139;49.372;8.580;2023-12-22T10:58:01;4.73;;;1.77;;
32786;SDS011;19139;49.372;8.580;2023-12-22T11:00:37;5.60;;;1.97;;
32786;SDS011;19139;49.372;8.580;2023-12-22T11:03:08;4.50;;;1.97;;
32786;SDS011;19139;49.372;8.580;2023-12-22T11:05:38;7.63;;;2.10;;
32786;SDS011;19139;49.372;8.580;2023-12-22T11:08:11;8.90;;;2.10;;
32786;SDS011;19139;49.372;8.580;2023-12-22T11:10:41;6.73;;;1.87;;
32786;SDS011;19139;49.372;8.580;2023-12-22T11:13:12;4.77;;;1.93;;
32786;SDS011;19139;49.372;8.580;2023-12-22T11:15:39;4.10;;;2.10;;
32786;SDS011;19139;49.372;8.580;2023-12-22T11:18:07;5.70;;;2.13;;
32786;SDS011;19139;49.372;8.580;2023-12-22T11:20:36;5.23;;;1.60;;
32786;SDS011;19139;49.372;8.580;2023-12-22T11:23:04;5.13;;;1.57;;
32786;SDS011;19139;49.372;8.580;2023-12-22T11:25:32;4.80;;;2.03;;
32786;SDS011;19139;49.372;8.580;2023-12-22T11:28:00;5.13;;;2.00;;
32786;SDS011;19139;49.372;8.580;2023-12-22T11:30:29;3.47;;;1.40;;
32786;SDS011;19139;49.372;8.580;2023-12-22T11:32:57;4.10;;;2.00;;
32786;SDS011;19139;49.372;8.580;2023-12-22T11:35:25;4.87;;;1.50;;
32786;SDS011;19139;49.372;8.580;2023-12-22T11:37:59;3.27;;;1.73;;
32786;SDS011;19139;49.372;8.580;2023-12-22T11:40:28;3.10;;;1.50;;
32786;SDS011;19139;49.372;8.580;2023-12-22T11:42:55;3.87;;;1.70;;
32786;SDS011;19139;49.372;8.580;2023-12-22T11:45:22;5.17;;;2.10;;
32786;SDS011;19139;49.372;8.580;2023-12-22T11:47:50;4.03;;;1.77;;
32786;SDS011;19139;49.372;8.580;2023-12-22T11:50:27;4.27;;;1.37;;
32786;SDS011;19139;49.372;8.580;2023-12-22T11:52:56;3.60;;;1.33;;
32786;SDS011;19139;49.372;8.580;2023-12-22T11:55:55;2.67;;;1.43;;
32786;SDS011;19139;49.372;8.580;2023-12-22T11:58:41;5.73;;;2.40;;
32786;SDS011;19139;49.372;8.580;2023-12-22T12:01:25;5.47;;;2.03;;
32786;SDS011;19139;49.372;8.580;2023-12-22T12:03:58;6.67;;;1.80;;
32786;SDS011;19139;49.372;8.580;2023-12-22T12:08:58;4.70;;;1.50;;
32786;SDS011;19139;49.372;8.580;2023-12-22T12:12:12;5.10;;;1.70;;
32786;SDS011;19139;49.372;8.580;2023-12-22T12:14:31;2.90;;;1.40;;
32786;SDS011;19139;49.372;8.580;2023-12-22T12:17:08;5.13;;;1.30;;
32786;SDS011;19139;49.372;8.580;2023-12-22T12:19:38;4.10;;;1.23;;
32786;SDS011;19139;49.372;8.580;2023-12-22T12:22:08;3.33;;;1.53;;
32786;SDS011;19139;49.372;8.580;2023-12-22T12:24:36;3.77;;;1.17;;
32786;SDS011;19139;49.372;8.580;2023-12-22T12:27:04;2.23;;;1.20;;
32786;SDS011;19139;49.372;8.580;2023-12-22T12:29:34;3.00;;;1.17;;
32786;SDS011;19139;49.372;8.580;2023-12-22T12:32:04;4.03;;;1.10;;
32786;SDS011;19139;49.372;8.580;2023-12-22T12:34:34;3.93;;;1.23;;
32786;SDS011;19139;49.372;8.580;2023-12-22T12:37:02;5.03;;;1.60;;
32786;SDS011;19139;49.372;8.580;2023-12-22T12:39:30;4.90;;;1.53;;
32786;SDS011;19139;49.372;8.580;2023-12-22T12:42:00;4.47;;;1.43;;
32786;SDS011;19139;49.372;8.580;2023-12-22T12:44:29;3.83;;;1.67;;
32786;SDS011;19139;49.372;8.580;2023-12-22T12:46:58;3.90;;;1.27;;
32786;SDS011;19139;49.372;8.580;2023-12-22T12:49:26;3.73;;;1.07;;
32786;SDS011;19139;49.372;8.580;2023-12-22T12:51:57;3.63;;;1.10;;
32786;SDS011;19139;49.372;8.580;2023-12-22T12:54:24;3.47;;;0.87;;
32786;SDS011;19139;49.372;8.580;2023-12-22T12:56:52;3.47;;;1.10;;
32786;SDS011;19139;49.372;8.580;2023-12-22T12:59:19;3.07;;;1.57;;
32786;SDS011;19139;49.372;8.580;2023-12-22T13:01:46;5.20;;;2.17;;
32786;SDS011;19139;49.372;8.580;2023-12-22T13:04:14;11.53;;;4.60;;
32786;SDS011;19139;49.372;8.580;2023-12-22T13:09:11;8.37;;;4.00;;
32786;SDS011;19139;49.372;8.580;2023-12-22T13:11:39;9.07;;;3.57;;
32786;SDS011;19139;49.372;8.580;2023-12-22T13:14:09;9.53;;;3.30;;
32786;SDS011;19139;49.372;8.580;2023-12-22T13:16:36;8.80;;;3.50;;
32786;SDS011;19139;49.372;8.580;2023-12-22T13:19:04;6.43;;;2.67;;
32786;SDS011;19139;49.372;8.580;2023-12-22T13:21:31;7.30;;;3.53;;
32786;SDS011;19139;49.372;8.580;2023-12-22T13:26:42;6.33;;;3.03;;
32786;SDS011;19139;49.372;8.580;2023-12-22T13:29:10;6.40;;;3.20;;
32786;SDS011;19139;49.372;8.580;2023-12-22T13:31:41;5.43;;;2.60;;
32786;SDS011;19139;49.372;8.580;2023-12-22T13:34:12;6.73;;;3.07;;
32786;SDS011;19139;49.372;8.580;2023-12-22T13:36:40;5.90;;;2.30;;
32786;SDS011;19139;49.372;8.580;2023-12-22T13:39:08;6.60;;;2.43;;
32786;SDS011;19139;49.372;8.580;2023-12-22T13:41:39;6.33;;;2.67;;
32786;SDS011;19139;49.372;8.580;2023-12-22T13:44:08;5.13;;;2.83;;
32786;SDS011;19139;49.372;8.580;2023-12-22T13:46:34;7.30;;;3.07;;
32786;SDS011;19139;49.372;8.580;2023-12-22T13:49:02;6.40;;;3.03;;
32786;SDS011;19139;49.372;8.580;2023-12-22T13:54:09;5.07;;;2.83;;
32786;SDS011;19139;49.372;8.580;2023-12-22T13:56:37;4.43;;;2.47;;
32786;SDS011;19139;49.372;8.580;2023-12-22T13:59:06;9.13;;;2.60;;
32786;SDS011;19139;49.372;8.580;2023-12-22T14:01:33;6.33;;;2.83;;
32786;SDS011;19139;49.372;8.580;2023-12-22T14:04:01;3.80;;;2.47;;
32786;SDS011;19139;49.372;8.580;2023-12-22T14:06:28;4.97;;;2.17;;
32786;SDS011;19139;49.372;8.580;2023-12-22T14:08:56;5.43;;;2.70;;
32786;SDS011;19139;49.372;8.580;2023-12-22T14:11:22;6.13;;;2.50;;
32786;SDS011;19139;49.372;8.580;2023-12-22T14:13:49;4.63;;;1.93;;
32786;SDS011;19139;49.372;8.580;2023-12-22T14:16:16;6.90;;;2.70;;
32786;SDS011;19139;49.372;8.580;2023-12-22T14:18:43;4.40;;;2.13;;
32786;SDS011;19139;49.372;8.580;2023-12-22T14:21:10;4.63;;;2.30;;
32786;SDS011;19139;49.372;8.580;2023-12-22T14:23:36;3.77;;;1.90;;
32786;SDS011;19139;49.372;8.580;2023-12-22T14:26:03;4.20;;;2.40;;
32786;SDS011;19139;49.372;8.580;2023-12-22T14:28:31;4.77;;;2.37;;
32786;SDS011;19139;49.372;8.580;2023-12-22T14:30:58;5.33;;;2.60;;
32786;SDS011;19139;49.372;8.580;2023-12-22T14:33:25;4.47;;;2.17;;
32786;SDS011;19139;49.372;8.580;2023-12-22T14:35:52;4.03;;;1.90;;
32786;SDS011;19139;49.372;8.580;2023-12-22T14:38:19;4.70;;;2.30;;
32786;SDS011;19139;49.372;8.580;2023-12-22T14:40:46;4.57;;;2.27;;
32786;SDS011;19139;49.372;8.580;2023-12-22T14:43:13;4.73;;;3.03;;
32786;SDS011;19139;49.372;8.580;2023-12-22T14:45:39;4.47;;;2.33;;
32786;SDS011;19139;49.372;8.580;2023-12-22T14:48:06;3.57;;;2.30;;
32786;SDS011;19139;49.372;8.580;2023-12-22T14:50:33;3.30;;;2.00;;
32786;SDS011;19139;49.372;8.580;2023-12-22T14:53:00;6.30;;;2.07;;
32786;SDS011;19139;49.372;8.580;2023-12-22T14:55:26;4.33;;;2.23;;
32786;SDS011;19139;49.372;8.580;2023-12-22T14:57:53;5.90;;;2.77;;
32786;SDS011;19139;49.372;8.580;2023-12-22T15:00:20;4.50;;;2.07;;
32786;SDS011;19139;49.372;8.580;2023-12-22T15:02:47;3.43;;;2.20;;
32786;SDS011;19139;49.372;8.580;2023-12-22T15:05:14;5.07;;;2.10;;